Time;durP1;ratioP1;P1;durP2;ratioP2;P2;SDS_P1;SDS_P2;PMS_P1;PMS_P2;Temp;Humidity;BMP_temperature;BMP_pressure;BME280_temperature;BME280_humidity;BME280_pressure;Samples;Min_cycle;Max_cycle;Signal;HPM_P1;HPM_P2
2021/03/23 00:01:53;;;;;;;42.05;28.57;;;;;;;2.40;94.15;100866.27;1842600;77;21909;-76
2021/03/23 00:04:23;;;;;;;42.83;28.23;;;;;;;2.36;94.11;100859.55;1842179;77;21010;-81
2021/03/23 00:07:06;;;;;;;44.73;30.17;;;;;;;2.32;94.24;100855.86;1842397;77;21679;-78
2021/03/23 00:09:34;;;;;;;39.92;28.07;;;;;;;2.28;94.41;100858.11;1842473;77;21193;-79
2021/03/23 00:12:03;;;;;;;41.77;28.62;;;;;;;2.24;94.55;100856.06;1842327;77;21189;-80
2021/03/23 00:14:31;;;;;;;44.85;29.35;;;;;;;2.20;94.77;100855.78;1842208;77;21118;-79
2021/03/23 00:16:59;;;;;;;43.40;29.20;;;;;;;2.18;94.87;100856.69;1842436;77;21145;-76
2021/03/23 00:19:28;;;;;;;42.93;29.12;;;;;;;2.13;95.09;100860.23;1842367;77;20932;-80
2021/03/23 00:21:57;;;;;;;42.17;28.52;;;;;;;2.10;95.25;100870.56;1842282;77;21293;-84
2021/03/23 00:24:26;;;;;;;45.08;29.52;;;;;;;2.06;95.49;100865.56;1842151;77;21240;-78
2021/03/23 00:26:54;;;;;;;44.60;31.02;;;;;;;2.01;95.55;100872.08;1842493;77;21110;-82
2021/03/23 00:29:22;;;;;;;48.87;31.00;;;;;;;1.97;95.59;100867.94;1842358;77;21091;-79
2021/03/23 00:31:50;;;;;;;45.28;30.75;;;;;;;1.94;95.71;100866.75;1842439;77;21118;-79
2021/03/23 00:34:18;;;;;;;44.18;31.23;;;;;;;1.92;95.60;100863.81;1842413;77;21616;-76
2021/03/23 00:36:48;;;;;;;45.55;30.75;;;;;;;1.88;95.66;100859.21;1842243;77;21083;-79
2021/03/23 00:39:16;;;;;;;44.15;29.72;;;;;;;1.87;95.65;100860.55;1842653;77;21059;-81
2021/03/23 00:41:44;;;;;;;46.73;30.80;;;;;;;1.84;95.76;100862.76;1842593;77;21039;-78
2021/03/23 00:44:13;;;;;;;49.75;32.30;;;;;;;1.85;95.75;100865.69;1842409;77;21138;-77
2021/03/23 00:46:41;;;;;;;46.98;30.15;;;;;;;1.85;95.79;100869.53;1842458;77;22103;-78
2021/03/23 00:49:10;;;;;;;49.03;32.13;;;;;;;1.86;95.81;100867.37;1842668;77;20983;-76
2021/03/23 00:51:39;;;;;;;48.45;31.52;;;;;;;1.88;95.69;100870.73;1842475;77;21047;-77
2021/03/23 00:54:26;;;;;;;46.30;30.65;;;;;;;1.91;95.53;100882.19;1840273;77;21308;-77
2021/03/23 00:56:56;;;;;;;48.35;31.50;;;;;;;1.95;95.44;100881.64;1842464;77;21197;-78
2021/03/23 00:59:24;;;;;;;44.50;29.90;;;;;;;1.98;95.35;100889.23;1842467;77;21258;-85
2021/03/23 01:01:52;;;;;;;47.25;31.20;;;;;;;1.99;95.29;100891.77;1842374;77;21174;-75
2021/03/23 01:04:22;;;;;;;41.73;27.60;;;;;;;1.99;95.37;100887.92;1842205;77;21576;-77
2021/03/23 01:06:51;;;;;;;30.20;21.57;;;;;;;1.99;95.39;100899.44;1842851;77;21004;-76
2021/03/23 01:09:19;;;;;;;29.30;20.10;;;;;;;1.99;95.19;100893.48;1843119;77;21142;-75
2021/03/23 01:11:48;;;;;;;24.47;17.40;;;;;;;1.97;95.00;100899.94;1842949;77;21348;-75
2021/03/23 01:14:17;;;;;;;23.32;16.42;;;;;;;1.94;94.72;100901.30;1843053;77;21512;-79
2021/03/23 01:16:45;;;;;;;22.02;15.98;;;;;;;1.93;94.27;100903.88;1842812;77;21143;-75
2021/03/23 01:19:14;;;;;;;21.33;14.40;;;;;;;1.92;94.27;100900.48;1843105;77;21564;-76
2021/03/23 01:21:43;;;;;;;19.37;13.55;;;;;;;1.90;93.84;100905.25;1842867;77;21561;-76
2021/03/23 01:24:13;;;;;;;20.97;14.13;;;;;;;1.89;93.60;100917.20;1842257;77;21366;-77
2021/03/23 01:26:41;;;;;;;16.25;11.93;;;;;;;1.87;93.38;100920.25;1842942;77;21023;-76
2021/03/23 01:29:09;;;;;;;16.97;11.80;;;;;;;1.87;93.33;100924.09;1842895;77;21011;-84
2021/03/23 01:31:39;;;;;;;16.48;12.15;;;;;;;1.87;93.20;100930.92;1842968;77;21585;-78
2021/03/23 01:34:07;;;;;;;16.20;10.70;;;;;;;1.84;92.84;100936.11;1843030;77;21166;-77
2021/03/23 01:36:37;;;;;;;16.10;10.43;;;;;;;1.82;92.41;100931.48;1842779;77;21177;-75
2021/03/23 01:39:05;;;;;;;18.00;11.33;;;;;;;1.81;92.09;100941.31;1843036;77;20991;-77
2021/03/23 01:41:34;;;;;;;13.72;9.20;;;;;;;1.79;91.80;100946.89;1842900;77;21454;-76
2021/03/23 01:44:02;;;;;;;12.55;9.08;;;;;;;1.81;91.47;100948.98;1843124;77;21179;-78
2021/03/23 01:49:25;;;;;;;12.13;7.83;;;;;;;1.84;91.08;100953.59;1967743;72;22725;-78
2021/03/23 01:51:54;;;;;;;13.50;8.13;;;;;;;1.80;90.60;100953.70;1855487;77;20910;-77
2021/03/23 01:54:26;;;;;;;14.38;7.72;;;;;;;1.79;89.79;100942.62;1856974;77;22128;-80
2021/03/23 01:57:01;;;;;;;13.22;7.20;;;;;;;1.78;89.49;100944.80;1854849;77;20878;-77
2021/03/23 01:59:29;;;;;;;11.73;6.67;;;;;;;1.77;89.07;100943.11;1856700;77;21017;-79
2021/03/23 02:01:59;;;;;;;9.65;6.08;;;;;;;1.77;88.41;100948.22;1854848;77;21633;-76
2021/03/23 02:04:28;;;;;;;7.42;5.87;;;;;;;1.76;87.71;100947.81;1837229;78;20949;-76
2021/03/23 02:06:57;;;;;;;8.78;5.47;;;;;;;1.75;86.82;100949.15;1889694;76;21191;-81
2021/03/23 02:09:28;;;;;;;9.23;5.75;;;;;;;1.73;86.26;100954.29;1854789;77;21033;-78
2021/03/23 02:12:00;;;;;;;7.05;4.95;;;;;;;1.71;86.02;100957.77;1856909;77;21147;-86
2021/03/23 02:14:33;;;;;;;7.78;5.33;;;;;;;1.66;86.06;100955.78;1854817;77;21154;-75
2021/03/23 02:17:18;;;;;;;;;;;;;;;1.65;85.93;100957.92;1859558;77;21099;-77
2021/03/23 02:19:47;;;;;;;8.73;5.12;;;;;;;1.60;85.13;100957.59;1871890;76;22187;-79
2021/03/23 02:22:33;;;;;;;7.55;4.80;;;;;;;1.58;85.33;100957.23;1855020;77;21642;-76
2021/03/23 02:25:03;;;;;;;8.55;4.50;;;;;;;1.56;85.03;100960.28;1853231;77;20990;-74
2021/03/23 02:27:31;;;;;;;7.92;4.65;;;;;;;1.52;84.92;100962.07;1854891;77;21574;-84
2021/03/23 02:30:00;;;;;;;11.93;5.20;;;;;;;1.50;85.12;100967.64;1853445;77;21659;-74
2021/03/23 02:32:28;;;;;;;10.88;4.70;;;;;;;1.48;84.84;100968.13;1854902;77;21186;-77
2021/03/23 02:34:59;;;;;;;6.60;4.28;;;;;;;1.47;84.68;100964.31;1853226;77;21049;-78
2021/03/23 02:37:27;;;;;;;10.75;4.62;;;;;;;1.47;84.61;100961.75;1854962;77;21001;-77
2021/03/23 02:39:55;;;;;;;8.00;4.37;;;;;;;1.45;84.52;100959.25;1853059;77;21056;-79
2021/03/23 02:42:23;;;;;;;7.22;4.50;;;;;;;1.45;84.37;100960.53;1855135;77;21562;-77
2021/03/23 02:44:51;;;;;;;8.48;4.60;;;;;;;1.45;84.30;100958.41;1853025;77;21132;-75
2021/03/23 02:47:20;;;;;;;8.28;4.65;;;;;;;1.43;84.53;100962.73;1854677;77;21570;-77
2021/03/23 02:49:48;;;;;;;8.85;4.20;;;;;;;1.41;84.33;100967.02;1853222;77;21148;-79
2021/03/23 02:52:17;;;;;;;9.85;4.37;;;;;;;1.39;84.40;100967.06;1855114;77;21152;-76
2021/03/23 02:54:47;;;;;;;9.30;4.92;;;;;;;1.39;84.36;100971.34;1853145;77;20902;-77
2021/03/23 02:57:16;;;;;;;7.58;4.80;;;;;;;1.39;84.34;100982.41;1855090;77;21368;-77
2021/03/23 02:59:44;;;;;;;8.00;4.55;;;;;;;1.36;84.40;100983.77;1852727;77;20875;-80
2021/03/23 03:02:13;;;;;;;7.85;4.25;;;;;;;1.34;84.41;100985.49;1854444;77;20918;-82
2021/03/23 03:04:43;;;;;;;6.70;4.35;;;;;;;1.33;84.38;100986.83;1852632;77;21080;-77
2021/03/23 03:07:12;;;;;;;7.45;4.47;;;;;;;1.30;84.33;100990.30;1854659;77;20897;-78
2021/03/23 03:09:41;;;;;;;6.50;4.10;;;;;;;1.27;84.43;100989.09;1852522;77;21567;-76
2021/03/23 03:12:11;;;;;;;7.15;4.58;;;;;;;1.26;84.30;100992.95;1854518;77;21559;-79
2021/03/23 03:14:40;;;;;;;5.72;4.12;;;;;;;1.23;84.24;100993.02;1852428;77;21044;-78
2021/03/23 03:17:08;;;;;;;9.03;5.00;;;;;;;1.20;84.46;100990.53;1854508;77;21589;-78
2021/03/23 03:19:38;;;;;;;9.28;5.00;;;;;;;1.15;84.61;100991.08;1852469;77;21156;-77
2021/03/23 03:22:08;;;;;;;8.63;4.67;;;;;;;1.11;84.51;100992.86;1854183;77;21179;-79
2021/03/23 03:24:36;;;;;;;10.48;4.83;;;;;;;1.08;84.11;100988.63;1852721;77;21651;-78
2021/03/23 03:27:06;;;;;;;11.88;4.97;;;;;;;1.07;83.73;100995.08;1854421;77;21476;-76
2021/03/23 03:29:35;;;;;;;8.20;4.30;;;;;;;1.05;83.15;101001.95;1852697;77;21044;-78
2021/03/23 03:32:04;;;;;;;10.23;4.75;;;;;;;1.01;82.74;100998.61;1854387;77;21037;-77
2021/03/23 03:34:32;;;;;;;7.15;4.65;;;;;;;0.99;82.60;101000.77;1828250;77;22116;-75
2021/03/23 03:37:02;;;;;;;10.30;5.12;;;;;;;0.96;82.85;101004.23;1854273;77;21590;-82
2021/03/23 03:39:31;;;;;;;8.93;4.55;;;;;;;0.93;82.93;101002.18;1836508;78;21063;-77
2021/03/23 03:41:59;;;;;;;8.53;5.12;;;;;;;0.91;82.98;100998.83;1888877;76;21650;-75
2021/03/23 03:44:28;;;;;;;9.70;5.17;;;;;;;0.89;82.89;101006.97;1854549;77;21084;-83
2021/03/23 03:46:56;;;;;;;10.05;5.00;;;;;;;0.86;83.08;100998.09;1852450;77;21968;-82
2021/03/23 03:49:26;;;;;;;7.00;4.03;;;;;;;0.81;82.70;101003.29;1854266;77;21503;-77
2021/03/23 03:51:55;;;;;;;6.58;3.77;;;;;;;0.79;82.12;101009.31;1852485;77;21492;-76
2021/03/23 03:54:23;;;;;;;7.83;4.33;;;;;;;0.81;81.26;101017.77;1854566;77;21507;-78
2021/03/23 03:56:52;;;;;;;5.67;3.58;;;;;;;0.82;80.50;101015.20;1852394;77;20954;-77
2021/03/23 03:59:20;;;;;;;6.60;3.42;;;;;;;0.85;80.47;101016.84;1854296;77;22129;-76
2021/03/23 04:01:48;;;;;;;9.33;3.92;;;;;;;0.88;79.75;101023.17;1852417;77;21578;-79
2021/03/23 04:04:16;;;;;;;6.33;3.10;;;;;;;0.92;78.51;101023.09;1854307;77;21163;-78
2021/03/23 04:06:46;;;;;;;7.80;2.85;;;;;;;0.99;77.82;101034.84;1852348;77;20981;-75
2021/03/23 04:09:14;;;;;;;6.08;3.30;;;;;;;1.05;76.98;101032.14;1854389;77;20976;-75
2021/03/23 04:11:42;;;;;;;6.45;2.40;;;;;;;1.08;76.58;101042.30;1852706;77;21182;-76
2021/03/23 04:14:11;;;;;;;4.83;2.58;;;;;;;1.11;76.16;101040.14;1854416;77;20977;-77
2021/03/23 04:16:40;;;;;;;6.00;2.95;;;;;;;1.13;75.04;101046.48;1852428;77;21013;-84
2021/03/23 04:19:08;;;;;;;5.78;2.75;;;;;;;1.16;73.89;101045.14;1854203;77;21095;-79
2021/03/23 04:21:37;;;;;;;4.53;2.42;;;;;;;1.20;73.34;101041.66;1852595;77;21246;-74
2021/03/23 04:24:06;;;;;;;3.15;2.00;;;;;;;1.23;72.75;101044.14;1854558;77;22196;-76
2021/03/23 04:26:34;;;;;;;4.50;2.02;;;;;;;1.24;72.49;101045.41;1852435;77;21057;-76
2021/03/23 04:29:04;;;;;;;6.20;2.20;;;;;;;1.25;72.22;101048.34;1854315;77;21017;-77
2021/03/23 04:31:35;;;;;;;4.45;2.37;;;;;;;1.27;71.95;101055.98;1852360;77;20984;-80
2021/03/23 04:34:06;;;;;;;6.97;2.72;;;;;;;1.29;72.22;101053.80;1854986;77;21107;-77
2021/03/23 04:36:35;;;;;;;4.42;2.37;;;;;;;1.30;72.07;101059.76;1853413;77;21268;-81
2021/03/23 04:39:05;;;;;;;5.78;2.47;;;;;;;1.28;71.68;101059.77;1855301;77;21029;-76
2021/03/23 04:41:33;;;;;;;3.90;2.12;;;;;;;1.25;71.89;101066.23;1853139;77;20911;-76
2021/03/23 04:44:03;;;;;;;3.60;2.30;;;;;;;1.21;72.02;101073.59;1855162;77;21091;-80
2021/03/23 04:46:32;;;;;;;6.45;2.10;;;;;;;1.17;71.13;101081.34;1853297;77;20911;-76
2021/03/23 04:49:00;;;;;;;3.75;2.40;;;;;;;1.11;71.09;101081.47;1855386;77;21235;-81
2021/03/23 04:51:30;;;;;;;4.33;2.27;;;;;;;1.03;71.15;101087.57;1866254;77;21132;-80
2021/03/23 04:54:06;;;;;;;4.20;2.47;;;;;;;0.95;71.59;101085.62;1854520;77;21001;-75
2021/03/23 04:56:38;;;;;;;3.70;2.05;;;;;;;0.87;70.97;101093.85;1865429;77;21040;-81
2021/03/23 04:59:06;;;;;;;9.90;4.85;;;;;;;0.79;71.36;101093.17;1865915;77;21467;-75
2021/03/23 05:01:34;;;;;;;8.50;3.90;;;;;;;0.75;71.95;101105.59;1854647;77;21125;-76
2021/03/23 05:04:08;;;;;;;8.63;3.50;;;;;;;0.68;72.37;101102.73;1852819;77;20978;-76
2021/03/23 05:06:36;;;;;;;4.67;2.20;;;;;;;0.62;72.66;101110.52;1854394;77;21068;-81
2021/03/23 05:09:05;;;;;;;6.22;2.15;;;;;;;0.59;72.26;101104.62;1852741;77;21046;-76
2021/03/23 05:11:34;;;;;;;4.60;2.42;;;;;;;0.59;72.55;101106.74;1854601;77;21068;-79
2021/03/23 05:14:05;;;;;;;4.00;2.33;;;;;;;0.59;72.45;101107.17;1852988;77;22246;-77
2021/03/23 05:16:33;;;;;;;5.20;2.30;;;;;;;0.61;72.11;101106.73;1854487;77;21048;-76
2021/03/23 05:19:04;;;;;;;6.22;2.10;;;;;;;0.62;71.69;101110.95;1852811;77;21591;-80
2021/03/23 05:21:32;;;;;;;4.78;2.20;;;;;;;0.65;72.59;101104.50;1854479;77;21152;-74
2021/03/23 05:24:01;;;;;;;7.50;2.83;;;;;;;0.68;72.29;101111.67;1852620;77;21144;-75
2021/03/23 05:26:29;;;;;;;4.37;2.30;;;;;;;0.71;72.24;101112.05;1854741;77;22107;-75
2021/03/23 05:28:58;;;;;;;4.60;2.20;;;;;;;0.76;72.32;101117.50;1852600;77;21100;-77
2021/03/23 05:31:26;;;;;;;7.67;2.80;;;;;;;0.80;72.10;101119.11;1854515;77;20906;-81
2021/03/23 05:33:56;;;;;;;5.10;2.17;;;;;;;0.84;71.71;101119.46;1852550;77;20875;-77
2021/03/23 05:36:24;;;;;;;6.55;2.42;;;;;;;0.89;71.65;101127.87;1854408;77;21483;-77
2021/03/23 05:38:52;;;;;;;5.62;2.47;;;;;;;0.91;71.42;101125.30;1852708;77;21139;-78
2021/03/23 05:41:44;;;;;;;5.50;2.67;;;;;;;0.94;70.56;101125.23;1854469;77;21057;-75
2021/03/23 05:44:42;;;;;;;5.40;2.30;;;;;;;0.96;71.58;101128.16;1852813;77;21184;-79
2021/03/23 05:47:16;;;;;;;5.40;2.27;;;;;;;0.96;69.41;101134.98;1854599;77;21127;-81
2021/03/23 05:50:02;;;;;;;5.97;2.45;;;;;;;0.97;70.49;101137.95;1857708;76;21246;-75
2021/03/23 05:52:46;;;;;;;5.12;1.90;;;;;;;0.95;69.26;101142.27;1826436;78;22238;-77
2021/03/23 05:55:44;;;;;;;5.28;2.50;;;;;;;0.93;69.88;101136.32;1801485;78;21609;-79
2021/03/23 05:58:20;;;;;;;4.08;2.42;;;;;;;0.92;70.49;101140.61;1827328;78;21020;-77
2021/03/23 06:01:05;;;;;;;4.60;2.00;;;;;;;0.91;70.72;101133.81;1826371;78;21028;-77
2021/03/23 06:03:42;;;;;;;5.17;2.52;;;;;;;0.91;70.26;101144.03;1826546;78;21471;-79
2021/03/23 06:06:57;;;;;;;2.85;1.92;;;;;;;0.97;70.66;101134.97;1826668;78;22107;-80
2021/03/23 06:09:29;;;;;;;4.70;2.22;;;;;;;1.03;70.92;101129.73;1826425;78;20957;-76
2021/03/23 06:12:30;;;;;;;3.22;1.98;;;;;;;1.13;70.71;101125.72;1826427;78;21016;-77
2021/03/23 06:15:28;;;;;;;5.75;2.20;;;;;;;1.21;70.14;101136.64;1826510;78;21043;-77
2021/03/23 06:18:13;;;;;;;36.13;10.03;;;;;;;1.27;66.91;101130.12;1836647;77;21154;-78
2021/03/23 06:21:00;;;;;;;8.78;3.30;;;;;;;1.33;67.17;101139.80;1839062;78;21247;-74
2021/03/23 06:23:59;;;;;;;14.80;5.08;;;;;;;1.40;66.61;101143.06;1826398;78;21024;-76
2021/03/23 06:26:40;;;;;;;22.80;8.25;;;;;;;1.48;67.15;101136.06;1826404;77;21617;-79
2021/03/23 06:30:03;;;;;;;9.48;2.75;;;;;;;1.56;65.58;101133.73;1827169;78;21146;-80
2021/03/23 06:32:53;;;;;;;28.90;13.32;;;;;;;1.63;65.58;101139.56;1826436;78;21071;-80
2021/03/23 06:35:33;;;;;;;10.65;5.58;;;;;;;1.80;64.69;101136.63;1998408;71;22358;-77
2021/03/23 06:38:07;;;;;;;16.12;7.78;;;;;;;1.83;63.93;101136.13;1933468;73;20948;-82
2021/03/23 06:40:36;;;;;;;7.60;4.50;;;;;;;1.87;63.53;101125.39;1903419;74;21243;-76
2021/03/23 06:43:29;;;;;;;5.42;3.20;;;;;;;1.92;63.31;101136.35;1933301;73;21508;-80
2021/03/23 06:46:23;;;;;;;4.58;2.80;;;;;;;1.98;62.44;101142.17;1933273;73;26664;-80
2021/03/23 06:49:24;;;;;;;5.10;2.85;;;;;;;2.05;59.83;101142.44;1933375;73;20987;-81
2021/03/23 06:52:06;;;;;;;5.22;2.17;;;;;;;2.12;59.88;101150.81;1932730;73;21423;-82
2021/03/23 06:54:39;;;;;;;4.15;2.27;;;;;;;2.18;58.84;101153.23;1933430;73;22132;-80
2021/03/23 06:57:17;;;;;;;5.42;2.45;;;;;;;2.24;59.78;101146.67;1933290;74;20896;-78
2021/03/23 07:00:16;;;;;;;5.40;2.25;;;;;;;2.31;59.26;101148.66;1933647;73;21069;-78
2021/03/23 07:02:48;;;;;;;5.78;2.17;;;;;;;2.36;58.15;101139.97;1933515;73;21047;-80
2021/03/23 07:05:21;;;;;;;5.30;1.97;;;;;;;2.42;56.43;101138.56;1925623;73;20959;-78
2021/03/23 07:08:10;;;;;;;5.67;2.77;;;;;;;2.46;56.47;101144.42;1927954;73;21111;-79
2021/03/23 07:10:55;;;;;;;6.50;1.98;;;;;;;2.50;55.64;101130.23;1933379;73;21003;-78
2021/03/23 07:13:34;;;;;;;6.15;2.70;;;;;;;2.56;56.61;101124.95;1933483;73;21118;-80
2021/03/23 07:16:14;;;;;;;3.25;2.10;;;;;;;2.63;57.25;101116.23;1933247;73;20937;-82
2021/03/23 07:18:46;;;;;;;2.67;1.77;;;;;;;2.69;55.21;101115.22;1933452;74;21647;-82
2021/03/23 07:21:29;;;;;;;3.62;1.85;;;;;;;2.73;55.42;101117.27;1933090;73;22431;-77
2021/03/23 07:24:08;;;;;;;3.72;1.52;;;;;;;2.79;53.84;101119.23;1929658;73;21048;-81
2021/03/23 07:26:39;;;;;;;5.75;2.02;;;;;;;2.86;53.84;101109.22;1867932;75;21015;-79
2021/03/23 07:29:16;;;;;;;5.83;1.80;;;;;;;2.89;54.16;101115.53;1897067;73;20896;-84
2021/03/23 07:32:08;;;;;;;4.05;1.70;;;;;;;2.94;53.78;101123.92;1905711;73;21004;-79
2021/03/23 07:35:01;;;;;;;2.85;1.45;;;;;;;3.05;51.87;101110.39;1902700;73;22183;-81
2021/03/23 07:38:07;;;;;;;3.92;1.32;;;;;;;3.10;48.47;101120.06;1933405;74;21109;-78
2021/03/23 07:40:46;;;;;;;4.62;1.52;;;;;;;3.11;46.70;101118.34;1909307;74;21186;-83
2021/03/23 07:43:46;;;;;;;3.27;1.50;;;;;;;3.13;45.39;101108.87;1897740;74;21028;-84
2021/03/23 07:46:28;;;;;;;2.62;1.55;;;;;;;3.15;44.03;101111.81;1904639;74;21117;-77
2021/03/23 07:49:11;;;;;;;5.58;1.75;;;;;;;3.21;44.14;101110.80;1931852;73;21171;-81
2021/03/23 07:51:51;;;;;;;2.33;1.35;;;;;;;3.23;44.87;101114.58;1932211;74;21107;-83
2021/03/23 07:54:41;;;;;;;2.35;1.45;;;;;;;3.28;43.57;101112.73;1931808;74;21190;-83
2021/03/23 07:57:26;;;;;;;2.67;1.55;;;;;;;3.33;45.91;101114.28;1931918;73;21623;-81
2021/03/23 08:00:30;;;;;;;4.28;1.87;;;;;;;3.39;45.71;101113.25;1932577;73;21098;-81
2021/03/23 08:03:25;;;;;;;3.58;1.75;;;;;;;3.43;45.45;101108.00;1932973;73;21172;-83
2021/03/23 08:06:09;;;;;;;2.75;1.45;;;;;;;3.46;43.97;101103.21;1932529;73;21035;-82
2021/03/23 08:09:06;;;;;;;9.40;5.58;;;;;;;3.47;44.11;101096.77;1932910;73;21217;-87
2021/03/23 08:12:12;;;;;;;6.08;1.90;;;;;;;3.54;46.84;101087.16;1932762;73;20967;-79
2021/03/23 08:14:56;;;;;;;8.13;4.33;;;;;;;3.63;45.28;101097.98;1932517;74;21593;-76
2021/03/23 08:17:51;;;;;;;8.55;3.60;;;;;;;3.66;43.42;101097.89;1894140;74;21250;-87
2021/03/23 08:20:53;;;;;;;3.62;2.30;;;;;;;3.65;45.03;101094.92;1931495;73;21058;-82
2021/03/23 08:23:52;;;;;;;2.95;1.50;;;;;;;3.67;45.69;101091.85;1932244;74;21035;-82
2021/03/23 08:26:59;;;;;;;2.98;1.45;;;;;;;3.76;46.63;101089.47;1929544;74;21596;-78
2021/03/23 08:30:12;;;;;;;2.52;1.27;;;;;;;3.87;45.32;101083.97;1905701;73;21129;-84
2021/03/23 08:33:18;;;;;;;3.98;1.90;;;;;;;3.95;42.50;101093.57;1931360;73;21174;-79
2021/03/23 08:36:31;;;;;;;3.60;1.50;;;;;;;3.97;42.95;101095.20;1830250;77;21017;-82
2021/03/23 08:39:51;;;;;;;2.33;1.30;;;;;;;4.00;43.86;101083.98;1863972;75;21119;-78
2021/03/23 08:42:29;;;;;;;4.47;2.05;;;;;;;4.08;41.65;101098.27;1859745;76;21055;-78
2021/03/23 08:45:10;;;;;;;5.45;2.20;;;;;;;4.09;43.90;101087.53;1860836;76;20962;-80
2021/03/23 08:47:45;;;;;;;2.70;1.80;;;;;;;4.18;45.74;101078.27;1864559;76;21379;-76
2021/03/23 08:50:19;;;;;;;4.30;1.87;;;;;;;4.36;44.30;101083.22;1863126;76;21164;-78
2021/03/23 08:52:54;;;;;;;2.40;1.50;;;;;;;4.50;44.07;101074.61;1837140;75;21558;-82
2021/03/23 08:55:37;;;;;;;9.08;1.50;;;;;;;4.52;41.89;101065.95;1836626;76;21107;-81
2021/03/23 08:58:17;;;;;;;6.05;1.55;;;;;;;4.57;43.22;101064.48;1836751;78;26876;-83
2021/03/23 09:01:01;;;;;;;5.35;1.67;;;;;;;4.71;41.90;101062.28;1836618;78;21181;-80
2021/03/23 09:03:49;;;;;;;3.87;1.60;;;;;;;4.80;41.42;101063.23;1837099;78;20929;-82
2021/03/23 09:06:23;;;;;;;3.70;1.62;;;;;;;4.88;41.54;101056.55;1838506;76;20992;-83
2021/03/23 09:08:55;;;;;;;2.72;1.62;;;;;;;4.93;39.97;101049.48;1836520;78;21042;-75
2021/03/23 09:12:08;;;;;;;4.92;1.45;;;;;;;4.97;42.00;101039.48;1857218;75;21165;-80
2021/03/23 09:15:05;;;;;;;7.72;2.55;;;;;;;5.09;42.17;101042.44;1881497;75;22129;-78
2021/03/23 09:18:17;;;;;;;5.00;1.52;;;;;;;5.24;41.37;101035.87;1859481;77;21019;-83
2021/03/23 09:20:52;;;;;;;2.90;1.32;;;;;;;5.38;41.58;101040.50;1847279;76;21147;-82
2021/03/23 09:23:26;;;;;;;2.87;1.50;;;;;;;5.33;39.58;101032.49;1819238;78;20953;-79
2021/03/23 09:26:02;;;;;;;3.20;1.60;;;;;;;5.34;41.31;101031.61;1836609;77;21088;-80
2021/03/23 09:28:40;;;;;;;3.47;1.50;;;;;;;5.40;38.20;101021.52;1855451;76;21323;-79
2021/03/23 09:31:21;;;;;;;3.70;1.67;;;;;;;5.33;38.66;101024.77;1841237;77;21053;-78
2021/03/23 09:33:53;;;;;;;3.17;1.47;;;;;;;5.30;39.49;101012.47;1849670;77;20971;-75
2021/03/23 09:36:50;;;;;;;3.63;1.60;;;;;;;5.32;38.59;101020.55;1853058;77;21576;-84
2021/03/23 09:39:23;;;;;;;2.50;1.67;;;;;;;5.28;38.64;101010.42;1824446;77;21606;-78
2021/03/23 09:42:20;;;;;;;2.17;1.60;;;;;;;5.23;38.61;101000.29;1823069;77;21623;-78
2021/03/23 09:45:17;;;;;;;6.22;2.60;;;;;;;5.23;40.51;100992.57;1825648;76;21186;-89
2021/03/23 09:48:02;;;;;;;4.00;2.05;;;;;;;5.35;40.44;100992.56;1848855;77;20971;-81
2021/03/23 09:50:41;;;;;;;7.40;2.42;;;;;;;5.63;39.86;100970.41;1856402;75;21188;-78
2021/03/23 09:53:36;;;;;;;4.62;2.25;;;;;;;6.62;37.15;100982.05;1854474;77;20928;-80
2021/03/23 09:56:19;;;;;;;6.50;4.28;;;;;;;7.55;35.93;100975.97;1854181;77;21133;-73
2021/03/23 09:59:12;;;;;;;2.77;2.10;;;;;;;8.63;35.78;100960.13;1869552;74;20991;-83
2021/03/23 10:01:59;;;;;;;4.70;1.30;;;;;;;9.89;34.06;100959.06;1886432;76;21465;-83
2021/03/23 10:04:40;;;;;;;5.12;1.87;;;;;;;11.03;30.63;100942.55;1889032;75;21034;-78
2021/03/23 10:07:31;;;;;;;3.02;2.00;;;;;;;11.82;29.09;100953.00;1889099;76;21561;-80
2021/03/23 10:10:31;;;;;;;5.95;2.17;;;;;;;11.88;28.21;100946.92;1886973;75;21385;-85
2021/03/23 10:13:21;;;;;;;2.80;1.30;;;;;;;11.91;27.82;100941.52;1888967;75;20928;-81
2021/03/23 10:15:49;;;;;;;2.98;1.72;;;;;;;11.77;26.74;100943.38;1889036;75;20900;-82
2021/03/23 10:18:27;;;;;;;2.58;1.35;;;;;;;12.57;27.93;100934.76;1889771;76;21617;-81
2021/03/23 10:21:07;;;;;;;3.12;1.67;;;;;;;13.48;26.59;100930.81;1867598;76;20908;-77
2021/03/23 10:23:47;;;;;;;3.67;2.12;;;;;;;14.22;24.81;100935.60;1855129;77;21175;-77
2021/03/23 10:26:15;;;;;;;2.92;1.42;;;;;;;14.41;25.09;100927.68;1830307;76;21043;-83
2021/03/23 10:28:55;;;;;;;2.40;1.50;;;;;;;14.61;25.41;100936.11;1889023;76;21647;-83
2021/03/23 10:31:38;;;;;;;5.53;1.67;;;;;;;15.48;24.10;100921.62;1887174;75;20927;-83
2021/03/23 10:34:15;;;;;;;4.22;1.10;;;;;;;16.21;23.58;100927.27;1889659;76;21003;-79
2021/03/23 10:36:54;;;;;;;1.95;1.25;;;;;;;16.80;22.49;100926.03;1890271;75;21441;-80
2021/03/23 10:39:45;;;;;;;1.70;1.22;;;;;;;16.60;21.10;100918.60;1890879;76;21180;-82
2021/03/23 10:42:28;;;;;;;3.17;1.45;;;;;;;17.00;20.81;100913.80;1827276;77;21586;-82
2021/03/23 10:45:29;;;;;;;3.52;1.55;;;;;;;16.63;20.20;100916.19;1848286;77;21166;-83
2021/03/23 10:48:25;;;;;;;1.98;1.27;;;;;;;15.48;21.21;100916.86;1873436;76;21045;-81
2021/03/23 10:51:22;;;;;;;4.55;1.87;;;;;;;14.72;22.30;100917.79;1827067;77;21183;-84
2021/03/23 10:54:12;;;;;;;10.48;1.92;;;;;;;15.26;23.19;100908.61;1824058;78;21140;-79
2021/03/23 10:56:44;;;;;;;4.55;1.35;;;;;;;16.31;22.97;100890.97;1796161;78;21046;-81
2021/03/23 10:59:13;;;;;;;;;;;;;;;16.87;21.15;100883.44;1855813;77;21500;-79
2021/03/23 11:02:10;;;;;;;3.83;1.67;;;;;;;17.09;20.16;100885.44;1853681;77;20277;-84
2021/03/23 11:05:15;;;;;;;4.28;1.42;;;;;;;17.15;22.06;100886.20;1851847;77;22239;-85
2021/03/23 11:07:58;;;;;;;4.00;1.67;;;;;;;17.70;20.45;100876.80;1854123;77;20945;-77
2021/03/23 11:10:32;;;;;;;2.77;1.75;;;;;;;18.38;19.87;100869.83;1853063;77;20934;-80
2021/03/23 11:13:01;;;;;;;7.17;1.87;;;;;;;18.28;18.83;100866.93;1853307;76;21012;-84
2021/03/23 11:15:37;;;;;;;2.85;1.62;;;;;;;18.13;19.26;100869.19;1867486;76;21083;-82
2021/03/23 11:18:01;;;;;;;6.00;2.83;;;;;;;17.77;20.22;100859.52;1853300;76;23003;-81
2021/03/23 11:20:36;;;;;;;5.05;1.60;;;;;;;18.04;20.06;100863.49;1888759;76;21096;-81
2021/03/23 11:23:41;;;;;;;2.80;1.60;;;;;;;18.21;19.61;100850.09;1871351;76;21052;-81
2021/03/23 11:26:12;;;;;;;4.35;1.60;;;;;;;17.97;20.35;100856.67;1873063;76;21079;-79
2021/03/23 11:28:40;;;;;;;6.33;2.22;;;;;;;17.59;20.12;100844.97;1890431;76;20979;-83
2021/03/23 11:31:16;;;;;;;3.42;1.80;;;;;;;17.25;20.74;100847.22;1888447;76;21178;-80
2021/03/23 11:33:46;;;;;;;2.20;1.40;;;;;;;16.56;20.07;100849.59;1878680;76;21065;-78
2021/03/23 11:36:19;;;;;;;3.47;1.72;;;;;;;16.12;20.93;100842.92;1817905;78;21197;-78
2021/03/23 11:38:48;;;;;;;2.75;1.50;;;;;;;16.02;20.91;100831.11;1815584;78;21216;-79
2021/03/23 11:41:38;;;;;;;3.65;1.52;;;;;;;15.93;20.51;100840.23;1815804;78;21110;-81
2021/03/23 11:44:23;;;;;;;4.28;1.20;;;;;;;15.50;21.39;100853.03;1797501;77;22215;-82
2021/03/23 11:47:20;;;;;;;6.00;1.52;;;;;;;14.42;21.46;100844.02;1840514;76;21099;-77
2021/03/23 11:50:04;;;;;;;3.70;1.80;;;;;;;13.82;22.85;100839.59;1818652;77;21035;-79
2021/03/23 11:52:37;;;;;;;6.17;1.50;;;;;;;13.73;22.51;100832.84;1837039;78;21455;-79
2021/03/23 11:55:11;;;;;;;3.37;1.40;;;;;;;14.09;23.92;100831.80;1869839;76;20985;-78
2021/03/23 11:57:40;;;;;;;3.90;2.00;;;;;;;13.75;22.49;100833.55;1868473;76;21179;-78
2021/03/23 12:00:13;;;;;;;3.65;1.75;;;;;;;12.63;25.54;100837.19;1834348;78;21041;-78
2021/03/23 12:02:43;;;;;;;5.33;1.92;;;;;;;12.58;24.99;100835.37;1868402;76;21611;-82
2021/03/23 12:05:13;;;;;;;4.03;1.70;;;;;;;12.87;25.01;100834.11;1834359;77;21183;-77
2021/03/23 12:08:13;;;;;;;4.37;2.02;;;;;;;12.72;26.25;100828.25;1852046;76;21014;-77
2021/03/23 12:10:49;;;;;;;4.00;1.77;;;;;;;12.12;25.24;100835.20;1831319;78;21247;-77
2021/03/23 12:13:32;;;;;;;3.47;2.02;;;;;;;11.28;26.71;100830.94;1837178;77;21143;-81
2021/03/23 12:16:08;;;;;;;2.00;1.50;;;;;;;11.82;26.37;100826.89;1870142;76;21058;-80
2021/03/23 12:18:36;;;;;;;3.17;1.92;;;;;;;12.29;24.63;100830.09;1833470;77;21486;-81
2021/03/23 12:21:06;;;;;;;3.52;1.82;;;;;;;12.52;24.72;100822.80;1831512;78;21087;-81